sensor_id;sensor_type;location;lat;lon;timestamp;pressure;altitude;pressure_sealevel;temperature;humidity
47080;BME280;33067;49.296;14.470;2023-11-19T00:01:25;97247.64;;;6.90;40.58
47080;BME280;33067;49.296;14.470;2023-11-19T00:03:51;97238.81;;;6.98;40.49
47080;BME280;33067;49.296;14.470;2023-11-19T00:06:16;97233.46;;;6.81;40.81
47080;BME280;33067;49.296;14.470;2023-11-19T00:08:42;97226.80;;;6.94;40.78
47080;BME280;33067;49.296;14.470;2023-11-19T00:11:08;97217.56;;;6.95;40.89
47080;BME280;33067;49.296;14.470;2023-11-19T00:13:33;97209.74;;;7.12;40.45
47080;BME280;33067;49.296;14.470;2023-11-19T00:15:59;97219.70;;;6.48;40.76
47080;BME280;33067;49.296;14.470;2023-11-19T00:18:24;97214.33;;;6.07;39.91
47080;BME280;33067;49.296;14.470;2023-11-19T00:20:49;97216.01;;;7.81;39.38
47080;BME280;33067;49.296;14.470;2023-11-19T00:23:14;97205.38;;;7.40;39.86
47080;BME280;33067;49.296;14.470;2023-11-19T00:25:40;97190.46;;;7.48;39.80
47080;BME280;33067;49.296;14.470;2023-11-19T00:28:05;97190.15;;;6.86;40.67
47080;BME280;33067;49.296;14.470;2023-11-19T00:30:30;97188.03;;;6.90;40.74
47080;BME280;33067;49.296;14.470;2023-11-19T00:32:55;97175.60;;;7.17;40.21
47080;BME280;33067;49.296;14.470;2023-11-19T00:35:20;97166.94;;;7.10;40.59
47080;BME280;33067;49.296;14.470;2023-11-19T00:37:46;97164.15;;;6.51;41.37
47080;BME280;33067;49.296;14.470;2023-11-19T00:40:11;97160.17;;;6.91;41.59
47080;BME280;33067;49.296;14.470;2023-11-19T00:42:36;97154.91;;;6.48;41.45
47080;BME280;33067;49.296;14.470;2023-11-19T00:45:02;97152.36;;;6.58;41.92
47080;BME280;33067;49.296;14.470;2023-11-19T00:47:27;97144.96;;;6.37;41.76
47080;BME280;33067;49.296;14.470;2023-11-19T00:49:52;97133.46;;;6.84;41.50
47080;BME280;33067;49.296;14.470;2023-11-19T00:52:19;97130.29;;;6.61;41.49
47080;BME280;33067;49.296;14.470;2023-11-19T00:54:44;97130.45;;;7.07;41.66
47080;BME280;33067;49.296;14.470;2023-11-19T00:57:09;97119.87;;;6.95;41.45
47080;BME280;33067;49.296;14.470;2023-11-19T00:59:34;97109.84;;;7.05;40.56
47080;BME280;33067;49.296;14.470;2023-11-19T01:02:00;97109.38;;;6.67;41.12
47080;BME280;33067;49.296;14.470;2023-11-19T01:04:25;97105.94;;;6.53;41.56
47080;BME280;33067;49.296;14.470;2023-11-19T01:06:51;97104.81;;;6.33;42.42
47080;BME280;33067;49.296;14.470;2023-11-19T01:09:16;97095.10;;;6.31;42.25
47080;BME280;33067;49.296;14.470;2023-11-19T01:11:42;97095.60;;;6.37;42.07
47080;BME280;33067;49.296;14.470;2023-11-19T01:14:07;97105.63;;;6.21;42.26
47080;BME280;33067;49.296;14.470;2023-11-19T01:16:33;97097.69;;;6.85;41.81
47080;BME280;33067;49.296;14.470;2023-11-19T01:18:58;97096.36;;;6.04;43.20
47080;BME280;33067;49.296;14.470;2023-11-19T01:21:24;97101.01;;;5.79;43.60
47080;BME280;33067;49.296;14.470;2023-11-19T01:23:49;97105.98;;;6.37;42.80
47080;BME280;33067;49.296;14.470;2023-11-19T01:26:15;97095.96;;;5.63;43.74
47080;BME280;33067;49.296;14.470;2023-11-19T01:28:41;97098.40;;;6.14;42.91
47080;BME280;33067;49.296;14.470;2023-11-19T01:31:06;97095.81;;;5.65;43.77
47080;BME280;33067;49.296;14.470;2023-11-19T01:33:31;97092.09;;;5.87;42.81
47080;BME280;33067;49.296;14.470;2023-11-19T01:35:56;97093.81;;;5.67;43.80
47080;BME280;33067;49.296;14.470;2023-11-19T01:38:23;97086.49;;;6.24;42.84
47080;BME280;33067;49.296;14.470;2023-11-19T01:40:47;97085.33;;;5.99;42.90
47080;BME280;33067;49.296;14.470;2023-11-19T01:45:39;97055.06;;;6.03;43.38
47080;BME280;33067;49.296;14.470;2023-11-19T01:48:04;97051.63;;;5.70;44.04
47080;BME280;33067;49.296;14.470;2023-11-19T01:50:29;97048.90;;;5.42;44.99
47080;BME280;33067;49.296;14.470;2023-11-19T01:52:54;97044.50;;;5.79;44.09
47080;BME280;33067;49.296;14.470;2023-11-19T01:55:20;97035.05;;;5.77;44.31
47080;BME280;33067;49.296;14.470;2023-11-19T01:57:46;97011.73;;;5.66;44.13
47080;BME280;33067;49.296;14.470;2023-11-19T02:00:12;97003.53;;;5.49;45.12
47080;BME280;33067;49.296;14.470;2023-11-19T02:02:35;96984.72;;;5.53;45.33
47080;BME280;33067;49.296;14.470;2023-11-19T02:05:01;96967.66;;;5.64;44.67
47080;BME280;33067;49.296;14.470;2023-11-19T02:07:27;96967.57;;;4.88;45.96
47080;BME280;33067;49.296;14.470;2023-11-19T02:09:53;96949.50;;;5.08;46.19
47080;BME280;33067;49.296;14.470;2023-11-19T02:12:18;96956.27;;;4.80;47.12
47080;BME280;33067;49.296;14.470;2023-11-19T02:14:43;96957.02;;;4.52;47.78
47080;BME280;33067;49.296;14.470;2023-11-19T02:19:39;96949.57;;;4.07;48.78
47080;BME280;33067;49.296;14.470;2023-11-19T02:21:59;96939.08;;;4.55;47.57
47080;BME280;33067;49.296;14.470;2023-11-19T02:24:25;96946.96;;;4.80;47.60
47080;BME280;33067;49.296;14.470;2023-11-19T02:26:55;96958.81;;;4.70;46.76
47080;BME280;33067;49.296;14.470;2023-11-19T02:29:15;96955.36;;;5.09;45.67
47080;BME280;33067;49.296;14.470;2023-11-19T02:31:41;96950.24;;;5.29;45.38
47080;BME280;33067;49.296;14.470;2023-11-19T02:34:06;96946.28;;;5.13;46.46
47080;BME280;33067;49.296;14.470;2023-11-19T02:36:32;96949.92;;;4.92;46.59
47080;BME280;33067;49.296;14.470;2023-11-19T02:38:57;96935.92;;;5.20;45.84
47080;BME280;33067;49.296;14.470;2023-11-19T02:41:22;96943.11;;;4.95;45.83
47080;BME280;33067;49.296;14.470;2023-11-19T02:43:47;96944.14;;;5.17;46.02
47080;BME280;33067;49.296;14.470;2023-11-19T02:46:13;96934.68;;;5.43;45.60
47080;BME280;33067;49.296;14.470;2023-11-19T02:48:38;96929.14;;;5.16;46.25
47080;BME280;33067;49.296;14.470;2023-11-19T02:51:05;96923.71;;;5.25;45.96
47080;BME280;33067;49.296;14.470;2023-11-19T02:53:29;96922.66;;;5.01;46.37
47080;BME280;33067;49.296;14.470;2023-11-19T02:55:55;96932.60;;;5.06;46.53
47080;BME280;33067;49.296;14.470;2023-11-19T02:58:21;96925.80;;;5.07;46.94
47080;BME280;33067;49.296;14.470;2023-11-19T03:00:46;96920.21;;;5.32;45.98
47080;BME280;33067;49.296;14.470;2023-11-19T03:03:11;96917.49;;;5.40;46.14
47080;BME280;33067;49.296;14.470;2023-11-19T03:05:37;96920.92;;;5.70;45.40
47080;BME280;33067;49.296;14.470;2023-11-19T03:08:02;96923.00;;;5.25;46.20
47080;BME280;33067;49.296;14.470;2023-11-19T03:13:01;96926.07;;;6.14;44.39
47080;BME280;33067;49.296;14.470;2023-11-19T03:15:26;96922.91;;;6.17;45.05
47080;BME280;33067;49.296;14.470;2023-11-19T03:17:52;96923.04;;;5.46;46.38
47080;BME280;33067;49.296;14.470;2023-11-19T03:20:19;96912.36;;;5.36;46.62
47080;BME280;33067;49.296;14.470;2023-11-19T03:22:42;96910.24;;;4.95;48.16
47080;BME280;33067;49.296;14.470;2023-11-19T03:25:08;96905.77;;;4.92;47.94
47080;BME280;33067;49.296;14.470;2023-11-19T03:27:35;96901.80;;;4.80;48.66
47080;BME280;33067;49.296;14.470;2023-11-19T03:29:59;96900.61;;;4.74;48.92
47080;BME280;33067;49.296;14.470;2023-11-19T03:32:24;96899.87;;;5.11;47.98
47080;BME280;33067;49.296;14.470;2023-11-19T03:34:50;96893.98;;;4.98;49.17
47080;BME280;33067;49.296;14.470;2023-11-19T03:37:15;96882.56;;;5.04;48.24
47080;BME280;33067;49.296;14.470;2023-11-19T03:39:40;96879.92;;;5.07;48.24
47080;BME280;33067;49.296;14.470;2023-11-19T03:42:06;96876.27;;;5.09;48.23
47080;BME280;33067;49.296;14.470;2023-11-19T03:44:31;96873.47;;;5.52;47.79
47080;BME280;33067;49.296;14.470;2023-11-19T03:46:57;96865.45;;;5.25;48.49
47080;BME280;33067;49.296;14.470;2023-11-19T03:49:22;96858.23;;;4.38;49.77
47080;BME280;33067;49.296;14.470;2023-11-19T03:51:48;96858.30;;;4.33;49.87
47080;BME280;33067;49.296;14.470;2023-11-19T03:54:13;96853.25;;;5.00;48.65
47080;BME280;33067;49.296;14.470;2023-11-19T03:56:40;96848.24;;;4.69;49.97
47080;BME280;33067;49.296;14.470;2023-11-19T03:59:04;96844.25;;;4.39;50.19
47080;BME280;33067;49.296;14.470;2023-11-19T04:01:29;96838.04;;;4.22;50.05
47080;BME280;33067;49.296;14.470;2023-11-19T04:03:55;96836.78;;;4.67;49.37
47080;BME280;33067;49.296;14.470;2023-11-19T04:06:20;96839.15;;;4.71;49.29
47080;BME280;33067;49.296;14.470;2023-11-19T04:08:46;96832.82;;;4.73;49.32
47080;BME280;33067;49.296;14.470;2023-11-19T04:11:11;96827.99;;;4.64;49.80
47080;BME280;33067;49.296;14.470;2023-11-19T04:13:36;96826.24;;;4.89;49.85
47080;BME280;33067;49.296;14.470;2023-11-19T04:16:02;96818.24;;;4.85;49.65
47080;BME280;33067;49.296;14.470;2023-11-19T04:18:27;96816.84;;;3.99;50.99
47080;BME280;33067;49.296;14.470;2023-11-19T04:20:52;96814.58;;;4.85;50.27
47080;BME280;33067;49.296;14.470;2023-11-19T04:23:18;96803.94;;;4.70;50.22
47080;BME280;33067;49.296;14.470;2023-11-19T04:25:43;96799.10;;;5.33;48.93
47080;BME280;33067;49.296;14.470;2023-11-19T04:28:09;96793.23;;;4.73;50.24
47080;BME280;33067;49.296;14.470;2023-11-19T04:30:35;96785.20;;;5.18;49.10
47080;BME280;33067;49.296;14.470;2023-11-19T04:33:00;96782.97;;;5.22;48.55
47080;BME280;33067;49.296;14.470;2023-11-19T04:35:25;96785.75;;;5.04;48.96
47080;BME280;33067;49.296;14.470;2023-11-19T04:37:51;96791.64;;;4.76;49.70
47080;BME280;33067;49.296;14.470;2023-11-19T04:40:16;96794.72;;;4.89;50.15
47080;BME280;33067;49.296;14.470;2023-11-19T04:42:42;96793.04;;;5.31;48.94
47080;BME280;33067;49.296;14.470;2023-11-19T04:45:08;96789.53;;;5.34;48.94
47080;BME280;33067;49.296;14.470;2023-11-19T04:47:33;96783.49;;;5.36;48.93
47080;BME280;33067;49.296;14.470;2023-11-19T04:49:58;96778.06;;;5.27;49.20
47080;BME280;33067;49.296;14.470;2023-11-19T04:52:24;96768.07;;;5.68;48.20
47080;BME280;33067;49.296;14.470;2023-11-19T04:54:49;96757.06;;;5.31;49.01
47080;BME280;33067;49.296;14.470;2023-11-19T04:57:15;96750.55;;;5.05;49.34
47080;BME280;33067;49.296;14.470;2023-11-19T04:59:41;96746.13;;;4.70;50.59
47080;BME280;33067;49.296;14.470;2023-11-19T05:02:06;96737.96;;;4.91;50.44
47080;BME280;33067;49.296;14.470;2023-11-19T05:04:31;96740.81;;;5.20;49.39
47080;BME280;33067;49.296;14.470;2023-11-19T05:06:57;96736.12;;;5.35;49.04
47080;BME280;33067;49.296;14.470;2023-11-19T05:09:23;96731.47;;;4.88;50.15
47080;BME280;33067;49.296;14.470;2023-11-19T05:11:48;96739.86;;;5.30;49.31
47080;BME280;33067;49.296;14.470;2023-11-19T05:14:13;96737.03;;;5.10;50.03
47080;BME280;33067;49.296;14.470;2023-11-19T05:16:39;96736.29;;;5.05;50.22
47080;BME280;33067;49.296;14.470;2023-11-19T05:19:04;96732.05;;;5.40;49.42
47080;BME280;33067;49.296;14.470;2023-11-19T05:21:30;96728.47;;;5.33;49.79
47080;BME280;33067;49.296;14.470;2023-11-19T05:23:56;96720.05;;;5.67;49.44
47080;BME280;33067;49.296;14.470;2023-11-19T05:26:22;96707.11;;;4.74;50.76
47080;BME280;33067;49.296;14.470;2023-11-19T05:28:46;96691.57;;;5.04;50.73
47080;BME280;33067;49.296;14.470;2023-11-19T05:31:11;96686.72;;;4.96;50.14
47080;BME280;33067;49.296;14.470;2023-11-19T05:33:37;96669.81;;;4.90;51.08
47080;BME280;33067;49.296;14.470;2023-11-19T05:36:03;96668.54;;;5.31;49.92
47080;BME280;33067;49.296;14.470;2023-11-19T05:38:29;96706.75;;;4.98;50.27
47080;BME280;33067;49.296;14.470;2023-11-19T05:40:53;96708.86;;;4.78;50.82
47080;BME280;33067;49.296;14.470;2023-11-19T05:43:19;96666.03;;;5.86;49.11
47080;BME280;33067;49.296;14.470;2023-11-19T05:45:44;96677.96;;;5.55;49.66
47080;BME280;33067;49.296;14.470;2023-11-19T05:48:09;96668.09;;;5.39;49.87
47080;BME280;33067;49.296;14.470;2023-11-19T05:50:35;96656.33;;;5.12;50.10
47080;BME280;33067;49.296;14.470;2023-11-19T05:53:00;96659.95;;;5.46;49.68
47080;BME280;33067;49.296;14.470;2023-11-19T05:55:26;96654.20;;;5.23;49.84
47080;BME280;33067;49.296;14.470;2023-11-19T05:57:52;96657.51;;;5.20;50.07
47080;BME280;33067;49.296;14.470;2023-11-19T06:00:17;96653.13;;;5.28;50.01
47080;BME280;33067;49.296;14.470;2023-11-19T06:02:42;96658.83;;;5.69;49.06
47080;BME280;33067;49.296;14.470;2023-11-19T06:05:08;96662.96;;;5.27;49.97
47080;BME280;33067;49.296;14.470;2023-11-19T06:07:33;96657.31;;;5.36;49.57
47080;BME280;33067;49.296;14.470;2023-11-19T06:09:59;96651.21;;;5.17;49.87
47080;BME280;33067;49.296;14.470;2023-11-19T06:12:24;96651.38;;;5.16;49.99
47080;BME280;33067;49.296;14.470;2023-11-19T06:14:50;96647.21;;;5.33;49.58
47080;BME280;33067;49.296;14.470;2023-11-19T06:17:15;96639.99;;;5.11;50.33
47080;BME280;33067;49.296;14.470;2023-11-19T06:19:41;96631.70;;;4.97;50.69
47080;BME280;33067;49.296;14.470;2023-11-19T06:22:07;96634.27;;;4.98;50.93
47080;BME280;33067;49.296;14.470;2023-11-19T06:24:32;96629.52;;;5.04;51.07
47080;BME280;33067;49.296;14.470;2023-11-19T06:26:58;96632.88;;;4.19;49.69
47080;BME280;33067;49.296;14.470;2023-11-19T06:29:23;96632.74;;;5.60;49.55
47080;BME280;33067;49.296;14.470;2023-11-19T06:31:49;96641.62;;;5.50;49.65
47080;BME280;33067;49.296;14.470;2023-11-19T06:34:15;96646.20;;;5.44;49.91
47080;BME280;33067;49.296;14.470;2023-11-19T06:36:40;96646.31;;;5.98;49.24
47080;BME280;33067;49.296;14.470;2023-11-19T06:39:06;96639.41;;;5.79;49.29
47080;BME280;33067;49.296;14.470;2023-11-19T06:41:31;96640.18;;;6.13;48.54
47080;BME280;33067;49.296;14.470;2023-11-19T06:43:57;96646.08;;;5.92;48.92
47080;BME280;33067;49.296;14.470;2023-11-19T06:46:24;96653.22;;;6.01;48.70
47080;BME280;33067;49.296;14.470;2023-11-19T06:48:48;96653.20;;;5.85;48.87
47080;BME280;33067;49.296;14.470;2023-11-19T06:51:13;96650.82;;;5.71;49.23
47080;BME280;33067;49.296;14.470;2023-11-19T06:53:38;96652.53;;;6.47;48.49
47080;BME280;33067;49.296;14.470;2023-11-19T06:56:04;96648.63;;;6.74;47.56
47080;BME280;33067;49.296;14.470;2023-11-19T06:58:28;96642.11;;;6.07;48.28
47080;BME280;33067;49.296;14.470;2023-11-19T07:00:54;96645.20;;;5.97;48.86
47080;BME280;33067;49.296;14.470;2023-11-19T07:03:20;96651.46;;;5.89;49.26
47080;BME280;33067;49.296;14.470;2023-11-19T07:05:45;96661.02;;;5.92;48.65
47080;BME280;33067;49.296;14.470;2023-11-19T07:08:11;96657.89;;;6.05;48.85
47080;BME280;33067;49.296;14.470;2023-11-19T07:10:36;96655.29;;;6.36;48.38
47080;BME280;33067;49.296;14.470;2023-11-19T07:13:02;96666.89;;;6.30;49.15
47080;BME280;33067;49.296;14.470;2023-11-19T07:15:28;96683.94;;;6.46;49.16
47080;BME280;33067;49.296;14.470;2023-11-19T07:17:53;96687.21;;;6.79;48.82
47080;BME280;33067;49.296;14.470;2023-11-19T07:20:18;96683.17;;;6.98;48.58
47080;BME280;33067;49.296;14.470;2023-11-19T07:22:44;96667.23;;;7.07;48.05
47080;BME280;33067;49.296;14.470;2023-11-19T07:25:09;96658.01;;;7.08;48.11
47080;BME280;33067;49.296;14.470;2023-11-19T07:27:36;96661.59;;;7.38;47.14
47080;BME280;33067;49.296;14.470;2023-11-19T07:30:00;96666.48;;;7.35;47.06
47080;BME280;33067;49.296;14.470;2023-11-19T07:32:26;96665.71;;;6.93;47.74
47080;BME280;33067;49.296;14.470;2023-11-19T07:34:51;96662.28;;;6.99;47.36
47080;BME280;33067;49.296;14.470;2023-11-19T07:37:16;96667.73;;;7.05;47.52
47080;BME280;33067;49.296;14.470;2023-11-19T07:39:42;96670.15;;;6.83;48.31
47080;BME280;33067;49.296;14.470;2023-11-19T07:42:07;96676.44;;;7.22;47.04
47080;BME280;33067;49.296;14.470;2023-11-19T07:44:33;96674.23;;;7.42;46.63
47080;BME280;33067;49.296;14.470;2023-11-19T07:46:58;96666.83;;;6.96;47.49
47080;BME280;33067;49.296;14.470;2023-11-19T07:49:24;96669.35;;;6.81;47.64
47080;BME280;33067;49.296;14.470;2023-11-19T07:51:49;96668.47;;;6.54;48.80
47080;BME280;33067;49.296;14.470;2023-11-19T07:54:16;96663.96;;;6.99;47.91
47080;BME280;33067;49.296;14.470;2023-11-19T07:56:40;96653.81;;;7.25;47.55
47080;BME280;33067;49.296;14.470;2023-11-19T07:59:05;96660.75;;;7.00;48.00
47080;BME280;33067;49.296;14.470;2023-11-19T08:01:31;96663.46;;;7.01;48.17
47080;BME280;33067;49.296;14.470;2023-11-19T08:03:56;96660.98;;;7.10;48.51
47080;BME280;33067;49.296;14.470;2023-11-19T08:06:23;96665.14;;;6.90;48.29
47080;BME280;33067;49.296;14.470;2023-11-19T08:08:48;96659.71;;;6.77;48.21
47080;BME280;33067;49.296;14.470;2023-11-19T08:11:13;96660.47;;;7.20;48.45
47080;BME280;33067;49.296;14.470;2023-11-19T08:13:39;96651.66;;;7.24;48.32
47080;BME280;33067;49.296;14.470;2023-11-19T08:16:07;96649.46;;;7.71;47.36
47080;BME280;33067;49.296;14.470;2023-11-19T08:18:30;96649.37;;;7.31;48.14
47080;BME280;33067;49.296;14.470;2023-11-19T08:20:57;96644.66;;;6.96;49.23
47080;BME280;33067;49.296;14.470;2023-11-19T08:23:22;96638.51;;;7.29;48.25
47080;BME280;33067;49.296;14.470;2023-11-19T08:25:46;96630.88;;;6.96;49.19
47080;BME280;33067;49.296;14.470;2023-11-19T08:28:12;96623.80;;;6.91;49.63
47080;BME280;33067;49.296;14.470;2023-11-19T08:30:37;96618.89;;;6.86;49.67
47080;BME280;33067;49.296;14.470;2023-11-19T08:33:03;96625.67;;;7.22;49.05
47080;BME280;33067;49.296;14.470;2023-11-19T08:35:28;96625.71;;;7.09;49.31
47080;BME280;33067;49.296;14.470;2023-11-19T08:37:54;96625.97;;;7.52;49.12
47080;BME280;33067;49.296;14.470;2023-11-19T08:40:19;96630.44;;;7.36;48.89
47080;BME280;33067;49.296;14.470;2023-11-19T08:42:45;96627.94;;;7.94;48.54
47080;BME280;33067;49.296;14.470;2023-11-19T08:45:10;96627.19;;;7.48;48.56
47080;BME280;33067;49.296;14.470;2023-11-19T08:47:35;96621.61;;;7.84;48.44
47080;BME280;33067;49.296;14.470;2023-11-19T08:50:01;96620.88;;;7.92;47.93
47080;BME280;33067;49.296;14.470;2023-11-19T08:52:26;96626.25;;;8.07;47.75
47080;BME280;33067;49.296;14.470;2023-11-19T08:54:51;96630.56;;;8.09;47.81
47080;BME280;33067;49.296;14.470;2023-11-19T08:57:16;96621.84;;;8.18;47.26
47080;BME280;33067;49.296;14.470;2023-11-19T08:59:42;96620.75;;;8.14;47.18
47080;BME280;33067;49.296;14.470;2023-11-19T09:02:07;96632.00;;;7.83;48.02
47080;BME280;33067;49.296;14.470;2023-11-19T09:04:33;96637.07;;;7.94;48.27
47080;BME280;33067;49.296;14.470;2023-11-19T09:06:59;96636.31;;;8.15;48.06
47080;BME280;33067;49.296;14.470;2023-11-19T09:09:23;96633.45;;;8.36;47.83
47080;BME280;33067;49.296;14.470;2023-11-19T09:11:49;96636.55;;;8.20;47.82
47080;BME280;33067;49.296;14.470;2023-11-19T09:14:15;96641.72;;;8.35;47.68
47080;BME280;33067;49.296;14.470;2023-11-19T09:16:40;96637.92;;;8.65;47.63
47080;BME280;33067;49.296;14.470;2023-11-19T09:19:05;96643.40;;;8.54;47.57
47080;BME280;33067;49.296;14.470;2023-11-19T09:21:30;96641.02;;;8.60;47.29
47080;BME280;33067;49.296;14.470;2023-11-19T09:23:56;96638.86;;;8.79;47.44
47080;BME280;33067;49.296;14.470;2023-11-19T09:26:22;96637.64;;;8.44;47.41
47080;BME280;33067;49.296;14.470;2023-11-19T09:28:48;96635.63;;;8.42;47.59
47080;BME280;33067;49.296;14.470;2023-11-19T09:31:14;96629.74;;;8.62;47.34
47080;BME280;33067;49.296;14.470;2023-11-19T09:33:38;96628.10;;;8.61;47.33
47080;BME280;33067;49.296;14.470;2023-11-19T09:36:04;96622.69;;;8.70;47.38
47080;BME280;33067;49.296;14.470;2023-11-19T09:38:28;96618.54;;;9.00;47.16
47080;BME280;33067;49.296;14.470;2023-11-19T09:40:53;96610.87;;;9.05;47.54
47080;BME280;33067;49.296;14.470;2023-11-19T09:43:19;96595.18;;;8.79;47.15
47080;BME280;33067;49.296;14.470;2023-11-19T09:45:48;96579.73;;;9.20;47.40
47080;BME280;33067;49.296;14.470;2023-11-19T09:48:10;96598.60;;;8.60;48.07
47080;BME280;33067;49.296;14.470;2023-11-19T09:50:34;96604.75;;;9.11;48.11
47080;BME280;33067;49.296;14.470;2023-11-19T09:53:00;96605.27;;;8.53;48.53
47080;BME280;33067;49.296;14.470;2023-11-19T09:55:26;96601.85;;;8.75;48.48
47080;BME280;33067;49.296;14.470;2023-11-19T09:57:52;96600.07;;;8.90;48.35
47080;BME280;33067;49.296;14.470;2023-11-19T10:00:19;96601.40;;;8.91;48.65
47080;BME280;33067;49.296;14.470;2023-11-19T10:02:42;96603.53;;;8.89;49.15
47080;BME280;33067;49.296;14.470;2023-11-19T10:05:07;96603.61;;;9.07;49.17
47080;BME280;33067;49.296;14.470;2023-11-19T10:07:32;96604.81;;;9.32;49.05
47080;BME280;33067;49.296;14.470;2023-11-19T10:09:57;96609.12;;;9.17;49.02
47080;BME280;33067;49.296;14.470;2023-11-19T10:12:22;96600.66;;;9.45;49.06
47080;BME280;33067;49.296;14.470;2023-11-19T10:14:48;96589.67;;;9.38;48.88
47080;BME280;33067;49.296;14.470;2023-11-19T10:17:13;96588.80;;;9.58;48.61
47080;BME280;33067;49.296;14.470;2023-11-19T10:19:40;96576.88;;;9.71;48.25
47080;BME280;33067;49.296;14.470;2023-11-19T10:22:05;96577.02;;;9.61;48.25
47080;BME280;33067;49.296;14.470;2023-11-19T10:24:33;96573.06;;;9.83;48.21
47080;BME280;33067;49.296;14.470;2023-11-19T10:26:56;96573.68;;;9.59;48.89
47080;BME280;33067;49.296;14.470;2023-11-19T10:29:20;96575.04;;;9.64;49.03
47080;BME280;33067;49.296;14.470;2023-11-19T10:36:39;96571.63;;;10.23;48.10
47080;BME280;33067;49.296;14.470;2023-11-19T10:39:01;96568.99;;;10.27;47.98
47080;BME280;33067;49.296;14.470;2023-11-19T10:41:27;96568.73;;;10.45;47.68
47080;BME280;33067;49.296;14.470;2023-11-19T10:43:52;96567.68;;;10.47;47.90
47080;BME280;33067;49.296;14.470;2023-11-19T10:46:17;96566.40;;;10.61;48.00
47080;BME280;33067;49.296;14.470;2023-11-19T10:48:44;96574.27;;;10.78;47.98
47080;BME280;33067;49.296;14.470;2023-11-19T10:51:08;96565.28;;;10.86;47.97
47080;BME280;33067;49.296;14.470;2023-11-19T10:53:37;96563.73;;;10.99;47.73
47080;BME280;33067;49.296;14.470;2023-11-19T10:56:02;96556.35;;;11.01;47.77
47080;BME280;33067;49.296;14.470;2023-11-19T10:58:29;96547.30;;;10.75;47.60
47080;BME280;33067;49.296;14.470;2023-11-19T11:00:55;96545.61;;;11.23;47.73
47080;BME280;33067;49.296;14.470;2023-11-19T11:03:17;96540.09;;;11.24;47.75
47080;BME280;33067;49.296;14.470;2023-11-19T11:05:43;96541.91;;;11.26;47.76
47080;BME280;33067;49.296;14.470;2023-11-19T11:08:08;96538.14;;;11.12;47.92
47080;BME280;33067;49.296;14.470;2023-11-19T11:10:39;96543.23;;;10.95;48.03
47080;BME280;33067;49.296;14.470;2023-11-19T11:13:00;96532.85;;;11.09;47.96
47080;BME280;33067;49.296;14.470;2023-11-19T11:15:23;96531.05;;;11.21;48.15
47080;BME280;33067;49.296;14.470;2023-11-19T11:17:48;96526.72;;;11.22;48.42
47080;BME280;33067;49.296;14.470;2023-11-19T11:20:13;96525.41;;;11.27;48.43
47080;BME280;33067;49.296;14.470;2023-11-19T11:22:44;96527.96;;;11.24;48.35
47080;BME280;33067;49.296;14.470;2023-11-19T11:25:21;96534.05;;;11.46;48.18
47080;BME280;33067;49.296;14.470;2023-11-19T11:27:45;96529.52;;;11.77;48.07
47080;BME280;33067;49.296;14.470;2023-11-19T11:30:02;96528.46;;;11.67;48.03
47080;BME280;33067;49.296;14.470;2023-11-19T11:32:28;96533.26;;;11.77;47.83
47080;BME280;33067;49.296;14.470;2023-11-19T11:34:58;96535.95;;;11.50;47.82
47080;BME280;33067;49.296;14.470;2023-11-19T11:37:18;96530.60;;;11.73;47.72
47080;BME280;33067;49.296;14.470;2023-11-19T11:39:37;96529.93;;;12.07;47.75
47080;BME280;33067;49.296;14.470;2023-11-19T11:46:54;96530.64;;;11.80;47.55
47080;BME280;33067;49.296;14.470;2023-11-19T11:49:25;96531.64;;;12.31;47.61
47080;BME280;33067;49.296;14.470;2023-11-19T11:51:57;96533.37;;;12.49;47.51
47080;BME280;33067;49.296;14.470;2023-11-19T11:54:10;96532.50;;;12.22;47.71
47080;BME280;33067;49.296;14.470;2023-11-19T11:56:37;96531.25;;;12.64;47.75
47080;BME280;33067;49.296;14.470;2023-11-19T11:59:02;96529.90;;;12.35;48.12
47080;BME280;33067;49.296;14.470;2023-11-19T12:01:26;96524.49;;;12.29;49.43
47080;BME280;33067;49.296;14.470;2023-11-19T12:03:51;96520.53;;;12.19;50.14
47080;BME280;33067;49.296;14.470;2023-11-19T12:06:16;96523.55;;;12.33;50.15
47080;BME280;33067;49.296;14.470;2023-11-19T12:08:42;96522.67;;;12.28;49.12
47080;BME280;33067;49.296;14.470;2023-11-19T12:11:07;96521.04;;;12.26;50.06
47080;BME280;33067;49.296;14.470;2023-11-19T12:13:47;96514.41;;;12.48;49.70
47080;BME280;33067;49.296;14.470;2023-11-19T12:16:08;96511.79;;;12.35;49.04
47080;BME280;33067;49.296;14.470;2023-11-19T12:18:23;96507.73;;;12.48;49.04
47080;BME280;33067;49.296;14.470;2023-11-19T12:20:48;96510.39;;;12.63;49.03
47080;BME280;33067;49.296;14.470;2023-11-19T12:23:14;96511.31;;;12.40;49.12
47080;BME280;33067;49.296;14.470;2023-11-19T12:25:38;96515.67;;;12.59;48.88
47080;BME280;33067;49.296;14.470;2023-11-19T12:28:04;96510.31;;;12.69;48.70
47080;BME280;33067;49.296;14.470;2023-11-19T12:30:31;96519.66;;;12.62;48.81
47080;BME280;33067;49.296;14.470;2023-11-19T12:32:55;96524.14;;;12.71;48.53
47080;BME280;33067;49.296;14.470;2023-11-19T12:35:20;96526.32;;;12.61;48.64
47080;BME280;33067;49.296;14.470;2023-11-19T12:37:46;96525.73;;;12.66;48.87
47080;BME280;33067;49.296;14.470;2023-11-19T12:40:12;96527.04;;;12.82;48.93
47080;BME280;33067;49.296;14.470;2023-11-19T12:42:38;96521.89;;;12.80;49.08
47080;BME280;33067;49.296;14.470;2023-11-19T12:45:02;96516.69;;;13.01;49.04
47080;BME280;33067;49.296;14.470;2023-11-19T12:47:27;96512.44;;;12.99;48.91
47080;BME280;33067;49.296;14.470;2023-11-19T12:50:11;96513.42;;;12.48;49.81
47080;BME280;33067;49.296;14.470;2023-11-19T12:52:23;96492.09;;;12.46;50.21
47080;BME280;33067;49.296;14.470;2023-11-19T12:54:44;96502.34;;;11.81;51.47
47080;BME280;33067;49.296;14.470;2023-11-19T12:57:08;96498.66;;;12.12;51.33
47080;BME280;33067;49.296;14.470;2023-11-19T12:59:33;96496.20;;;12.21;51.02
47080;BME280;33067;49.296;14.470;2023-11-19T13:02:00;96493.11;;;11.97;51.64
47080;BME280;33067;49.296;14.470;2023-11-19T13:04:29;96491.21;;;12.29;50.91